Dowell, Maryland
Current Conditions -  °F | °C
As of 12:58 PM on Saturday 25 Oct 2014 (Local Time) from K2W6 Reporting Station
Clear Clear  
Wind Chill: 68°   Ceiling: Unl
Heat Index: 68°   Visibility: 10mi
Dew Point: 41°   Wind: 5mph
Humidity: 37%   Direction: 240°WSW
Pressure: 29.91"   Gusts: NA
Location:  38.35°N, 76.46°W
Report Text: K2W6 251658Z AUTO 24004KT 10SM CLR 20/05 A2991 RMK AO1
Loading
Personal Weather Stations






























Interactive Weather Map
Tropical Storm Tracking
New forecast layout! Learn more

10-Day Weather Forecast

Advertisements
Track Severe Weather on mobile